Terminal Aerodrome Forecast
Issued by NWS

Home | Current Version | Previous Version | Text Only | Print | Product List | Glossary On
Versions: 1 2 3 4 5 6 7 8 9 10 11 12 13 14 15
000
FTUS43 KBIS 171720
TAFJMS
TAF
KJMS 171720Z 1718/1818 30014G23KT P6SM FEW250
     FM172000 30014KT P6SM FEW250
     FM180900 09009KT 3SM -SN BKN040
     FM181100 07015G23KT 1 1/2SM -SN BLSN OVC015
     FM181700 02016G24KT 3SM -SN BLSN OVC010=

USA.gov is the U.S. government's official web portal to all federal, state and local government web resources and services.